sensor_id;sensor_type;location;lat;lon;timestamp;pressure;altitude;pressure_sealevel;temperature;humidity
43683;BME280;29285;52.128;21.060;2022-12-07T00:02:03;99622.88;;;2.23;89.80
43683;BME280;29285;52.128;21.060;2022-12-07T00:07:05;99612.66;;;2.31;89.99
43683;BME280;29285;52.128;21.060;2022-12-07T00:12:06;99615.83;;;2.68;90.52
43683;BME280;29285;52.128;21.060;2022-12-07T00:17:07;99607.70;;;2.69;90.79
43683;BME280;29285;52.128;21.060;2022-12-07T00:22:09;99593.95;;;2.60;90.79
43683;BME280;29285;52.128;21.060;2022-12-07T00:27:10;99589.33;;;2.75;90.96
43683;BME280;29285;52.128;21.060;2022-12-07T00:32:11;99590.25;;;2.96;91.27
43683;BME280;29285;52.128;21.060;2022-12-07T00:37:13;99587.31;;;3.12;91.56
43683;BME280;29285;52.128;21.060;2022-12-07T00:42:14;99578.30;;;3.11;91.65
43683;BME280;29285;52.128;21.060;2022-12-07T00:47:15;99572.77;;;3.25;91.82
43683;BME280;29285;52.128;21.060;2022-12-07T00:52:17;99578.76;;;3.34;91.94
43683;BME280;29285;52.128;21.060;2022-12-07T00:57:18;99577.48;;;3.37;91.96
43683;BME280;29285;52.128;21.060;2022-12-07T01:02:19;99575.34;;;3.44;92.04
43683;BME280;29285;52.128;21.060;2022-12-07T01:07:21;99582.62;;;3.34;91.95
43683;BME280;29285;52.128;21.060;2022-12-07T01:12:23;99583.45;;;3.17;91.75
43683;BME280;29285;52.128;21.060;2022-12-07T01:17:25;99590.28;;;3.04;91.61
43683;BME280;29285;52.128;21.060;2022-12-07T01:22:27;99583.83;;;2.96;91.54
43683;BME280;29285;52.128;21.060;2022-12-07T01:27:28;99580.39;;;2.96;91.59
43683;BME280;29285;52.128;21.060;2022-12-07T01:32:30;99582.52;;;2.93;91.66
43683;BME280;29285;52.128;21.060;2022-12-07T01:37:36;99581.28;;;3.04;91.92
43683;BME280;29285;52.128;21.060;2022-12-07T01:42:38;99586.45;;;3.24;92.27
43683;BME280;29285;52.128;21.060;2022-12-07T01:47:39;99582.20;;;3.28;92.44
43683;BME280;29285;52.128;21.060;2022-12-07T01:52:44;99579.64;;;3.43;92.69
43683;BME280;29285;52.128;21.060;2022-12-07T01:57:52;99583.92;;;3.37;92.71
43683;BME280;29285;52.128;21.060;2022-12-07T02:08:07;99574.91;;;3.37;92.74
43683;BME280;29285;52.128;21.060;2022-12-07T02:13:21;99563.36;;;3.40;92.81
43683;BME280;29285;52.128;21.060;2022-12-07T02:30:08;99560.31;;;3.23;92.75
43683;BME280;29285;52.128;21.060;2022-12-07T02:35:20;99556.47;;;3.20;92.85
43683;BME280;29285;52.128;21.060;2022-12-07T02:40:31;99556.45;;;3.17;92.91
43683;BME280;29285;52.128;21.060;2022-12-07T02:45:37;99544.88;;;3.17;92.98
43683;BME280;29285;52.128;21.060;2022-12-07T02:50:45;99550.89;;;3.16;93.02
43683;BME280;29285;52.128;21.060;2022-12-07T02:55:48;99543.16;;;3.19;93.12
43683;BME280;29285;52.128;21.060;2022-12-07T03:06:20;99537.61;;;3.34;93.37
43683;BME280;29285;52.128;21.060;2022-12-07T03:11:32;99533.74;;;3.20;93.35
43683;BME280;29285;52.128;21.060;2022-12-07T03:17:01;99537.59;;;3.18;93.35
43683;BME280;29285;52.128;21.060;2022-12-07T03:22:13;99536.75;;;3.16;93.37
43683;BME280;29285;52.128;21.060;2022-12-07T03:27:18;99535.87;;;3.11;93.37
43683;BME280;29285;52.128;21.060;2022-12-07T03:32:29;99534.15;;;3.11;93.41
43683;BME280;29285;52.128;21.060;2022-12-07T03:37:41;99523.86;;;3.00;93.34
43683;BME280;29285;52.128;21.060;2022-12-07T03:42:51;99526.00;;;3.02;93.39
43683;BME280;29285;52.128;21.060;2022-12-07T03:53:24;99518.73;;;3.13;93.54
43683;BME280;29285;52.128;21.060;2022-12-07T03:58:28;99513.13;;;2.95;93.43
43683;BME280;29285;52.128;21.060;2022-12-07T04:03:31;99509.27;;;2.82;93.27
43683;BME280;29285;52.128;21.060;2022-12-07T04:08:32;99519.47;;;2.62;93.13
43683;BME280;29285;52.128;21.060;2022-12-07T04:13:34;99513.84;;;2.45;92.99
43683;BME280;29285;52.128;21.060;2022-12-07T04:18:37;99510.36;;;2.31;92.92
43683;BME280;29285;52.128;21.060;2022-12-07T04:23:38;99512.91;;;2.28;92.95
43683;BME280;29285;52.128;21.060;2022-12-07T04:28:39;99512.44;;;2.19;92.95
43683;BME280;29285;52.128;21.060;2022-12-07T04:33:41;99505.18;;;2.18;93.05
43683;BME280;29285;52.128;21.060;2022-12-07T04:38:42;99502.13;;;2.08;93.07
43683;BME280;29285;52.128;21.060;2022-12-07T04:43:44;99514.48;;;2.01;93.10
43683;BME280;29285;52.128;21.060;2022-12-07T04:48:47;99511.43;;;1.90;93.13
43683;BME280;29285;52.128;21.060;2022-12-07T04:53:48;99514.80;;;1.84;93.18
43683;BME280;29285;52.128;21.060;2022-12-07T04:58:52;99513.91;;;1.79;93.25
43683;BME280;29285;52.128;21.060;2022-12-07T05:03:54;99504.95;;;1.78;93.35
43683;BME280;29285;52.128;21.060;2022-12-07T05:08:55;99492.91;;;1.67;93.39
43683;BME280;29285;52.128;21.060;2022-12-07T05:13:57;99496.69;;;1.58;93.41
43683;BME280;29285;52.128;21.060;2022-12-07T05:18:58;99494.52;;;1.56;93.52
43683;BME280;29285;52.128;21.060;2022-12-07T05:24:00;99483.41;;;1.54;93.56
43683;BME280;29285;52.128;21.060;2022-12-07T05:29:02;99483.37;;;1.48;93.63
43683;BME280;29285;52.128;21.060;2022-12-07T05:34:03;99486.32;;;1.45;93.68
43683;BME280;29285;52.128;21.060;2022-12-07T05:39:05;99477.77;;;1.43;93.78
43683;BME280;29285;52.128;21.060;2022-12-07T05:44:07;99487.64;;;1.49;93.90
43683;BME280;29285;52.128;21.060;2022-12-07T05:49:08;99487.22;;;1.51;94.02
43683;BME280;29285;52.128;21.060;2022-12-07T05:54:09;99490.15;;;1.41;94.02
43683;BME280;29285;52.128;21.060;2022-12-07T05:59:11;99496.56;;;1.44;94.13
43683;BME280;29285;52.128;21.060;2022-12-07T06:04:34;99490.98;;;1.41;94.21
43683;BME280;29285;52.128;21.060;2022-12-07T06:09:39;99486.67;;;1.34;94.24
43683;BME280;29285;52.128;21.060;2022-12-07T06:14:41;99490.47;;;1.28;94.30
43683;BME280;29285;52.128;21.060;2022-12-07T06:19:42;99482.28;;;1.21;94.33
43683;BME280;29285;52.128;21.060;2022-12-07T06:24:44;99487.00;;;1.21;94.44
43683;BME280;29285;52.128;21.060;2022-12-07T06:29:46;99486.18;;;1.25;94.59
43683;BME280;29285;52.128;21.060;2022-12-07T06:34:47;99486.16;;;1.24;94.68
43683;BME280;29285;52.128;21.060;2022-12-07T06:39:48;99484.09;;;1.29;94.80
43683;BME280;29285;52.128;21.060;2022-12-07T06:44:50;99482.36;;;1.27;94.88
43683;BME280;29285;52.128;21.060;2022-12-07T06:49:51;99478.13;;;1.32;94.97
43683;BME280;29285;52.128;21.060;2022-12-07T06:54:52;99483.66;;;1.31;95.03
43683;BME280;29285;52.128;21.060;2022-12-07T06:59:54;99478.96;;;1.32;95.12
43683;BME280;29285;52.128;21.060;2022-12-07T07:04:55;99481.93;;;1.29;95.11
43683;BME280;29285;52.128;21.060;2022-12-07T07:09:56;99483.17;;;1.23;95.10
43683;BME280;29285;52.128;21.060;2022-12-07T07:14:57;99486.14;;;1.22;95.15
43683;BME280;29285;52.128;21.060;2022-12-07T07:19:59;99486.51;;;1.15;95.16
43683;BME280;29285;52.128;21.060;2022-12-07T07:25:00;99485.23;;;1.15;95.23
43683;BME280;29285;52.128;21.060;2022-12-07T07:30:02;99482.70;;;1.18;95.33
43683;BME280;29285;52.128;21.060;2022-12-07T07:35:05;99481.42;;;1.22;95.44
43683;BME280;29285;52.128;21.060;2022-12-07T07:40:08;99486.16;;;1.24;95.54
43683;BME280;29285;52.128;21.060;2022-12-07T07:45:10;99482.73;;;1.23;95.61
43683;BME280;29285;52.128;21.060;2022-12-07T07:50:11;99479.77;;;1.25;95.68
43683;BME280;29285;52.128;21.060;2022-12-07T07:55:13;99480.73;;;1.38;95.85
43683;BME280;29285;52.128;21.060;2022-12-07T08:00:16;99490.16;;;1.42;95.95
43683;BME280;29285;52.128;21.060;2022-12-07T08:05:18;99488.48;;;1.46;96.04
43683;BME280;29285;52.128;21.060;2022-12-07T08:10:19;99496.19;;;1.48;96.08
43683;BME280;29285;52.128;21.060;2022-12-07T08:15:21;99488.48;;;1.49;96.12
43683;BME280;29285;52.128;21.060;2022-12-07T08:20:22;99497.01;;;1.47;96.14
43683;BME280;29285;52.128;21.060;2022-12-07T08:25:23;99496.17;;;1.49;96.20
43683;BME280;29285;52.128;21.060;2022-12-07T08:30:26;99501.75;;;1.52;96.27
43683;BME280;29285;52.128;21.060;2022-12-07T08:35:28;99500.13;;;1.62;96.38
43683;BME280;29285;52.128;21.060;2022-12-07T08:40:30;99507.45;;;1.71;96.51
43683;BME280;29285;52.128;21.060;2022-12-07T08:45:31;99509.14;;;1.65;96.55
43683;BME280;29285;52.128;21.060;2022-12-07T08:50:36;99507.88;;;1.69;96.60
43683;BME280;29285;52.128;21.060;2022-12-07T08:55:38;99512.16;;;1.70;96.69
43683;BME280;29285;52.128;21.060;2022-12-07T09:00:39;99508.78;;;1.76;96.81
43683;BME280;29285;52.128;21.060;2022-12-07T09:05:41;99507.56;;;1.89;96.98
43683;BME280;29285;52.128;21.060;2022-12-07T09:10:42;99499.13;;;2.05;97.21
43683;BME280;29285;52.128;21.060;2022-12-07T09:15:43;99498.30;;;2.17;97.35
43683;BME280;29285;52.128;21.060;2022-12-07T09:20:44;99496.21;;;2.28;97.51
43683;BME280;29285;52.128;21.060;2022-12-07T09:25:46;99492.41;;;2.34;97.60
43683;BME280;29285;52.128;21.060;2022-12-07T09:30:48;99482.16;;;2.45;97.69
43683;BME280;29285;52.128;21.060;2022-12-07T09:35:51;99480.90;;;2.53;97.73
43683;BME280;29285;52.128;21.060;2022-12-07T09:40:54;99471.05;;;2.44;97.64
43683;BME280;29285;52.128;21.060;2022-12-07T09:45:56;99469.78;;;2.57;97.71
43683;BME280;29285;52.128;21.060;2022-12-07T09:51:00;99476.23;;;2.66;97.79
43683;BME280;29285;52.128;21.060;2022-12-07T09:56:02;99469.41;;;2.67;97.76
43683;BME280;29285;52.128;21.060;2022-12-07T10:01:18;99468.53;;;2.71;97.78
43683;BME280;29285;52.128;21.060;2022-12-07T10:06:21;99473.25;;;2.71;97.71
43683;BME280;29285;52.128;21.060;2022-12-07T10:11:22;99471.55;;;2.72;97.69
43683;BME280;29285;52.128;21.060;2022-12-07T10:21:39;99447.58;;;2.87;97.78
43683;BME280;29285;52.128;21.060;2022-12-07T10:26:52;99443.30;;;2.86;97.77
43683;BME280;29285;52.128;21.060;2022-12-07T10:37:19;99455.30;;;2.96;97.78
43683;BME280;29285;52.128;21.060;2022-12-07T10:42:28;99460.86;;;2.96;97.71
43683;BME280;29285;52.128;21.060;2022-12-07T10:53:06;99448.44;;;2.90;97.53
43683;BME280;29285;52.128;21.060;2022-12-07T11:15:18;99453.13;;;2.78;97.32
43683;BME280;29285;52.128;21.060;2022-12-07T11:20:53;99451.85;;;2.75;97.29
43683;BME280;29285;52.128;21.060;2022-12-07T11:37:18;99456.53;;;2.68;97.24
43683;BME280;29285;52.128;21.060;2022-12-07T11:42:27;99447.14;;;2.76;97.35
43683;BME280;29285;52.128;21.060;2022-12-07T11:48:09;99447.11;;;2.67;97.29
43683;BME280;29285;52.128;21.060;2022-12-07T12:03:33;99443.27;;;2.75;97.41
43683;BME280;29285;52.128;21.060;2022-12-07T12:08:42;99436.83;;;2.65;97.34
43683;BME280;29285;52.128;21.060;2022-12-07T12:24:31;99417.95;;;2.40;97.16
43683;BME280;29285;52.128;21.060;2022-12-07T12:29:41;99413.20;;;2.30;97.15
43683;BME280;29285;52.128;21.060;2022-12-07T12:45:29;99414.88;;;2.19;97.33
43683;BME280;29285;52.128;21.060;2022-12-07T12:50:35;99408.91;;;2.18;97.46
43683;BME280;29285;52.128;21.060;2022-12-07T13:01:39;99407.60;;;2.15;97.64
43683;BME280;29285;52.128;21.060;2022-12-07T13:11:34;99393.06;;;2.14;97.86
43683;BME280;29285;52.128;21.060;2022-12-07T13:16:39;99395.62;;;2.13;97.95
43683;BME280;29285;52.128;21.060;2022-12-07T13:21:42;99395.62;;;2.13;98.11
43683;BME280;29285;52.128;21.060;2022-12-07T13:26:44;99395.62;;;2.13;98.11
43683;BME280;29285;52.128;21.060;2022-12-07T13:31:55;99396.06;;;2.21;98.24
43683;BME280;29285;52.128;21.060;2022-12-07T13:37:02;99394.36;;;2.20;98.27
43683;BME280;29285;52.128;21.060;2022-12-07T13:42:34;99389.66;;;2.24;98.33
43683;BME280;29285;52.128;21.060;2022-12-07T13:47:44;99390.09;;;2.25;98.37
43683;BME280;29285;52.128;21.060;2022-12-07T13:52:50;99398.23;;;2.28;98.38
43683;BME280;29285;52.128;21.060;2022-12-07T13:57:55;99400.80;;;2.30;98.38
43683;BME280;29285;52.128;21.060;2022-12-07T14:03:03;99405.93;;;2.23;98.34
43683;BME280;29285;52.128;21.060;2022-12-07T14:13:33;99403.73;;;2.09;98.20
43683;BME280;29285;52.128;21.060;2022-12-07T14:18:42;99401.13;;;2.04;98.17
43683;BME280;29285;52.128;21.060;2022-12-07T14:23:44;99407.11;;;1.97;98.15
43683;BME280;29285;52.128;21.060;2022-12-07T14:28:46;99402.82;;;1.94;98.17
43683;BME280;29285;52.128;21.060;2022-12-07T14:33:48;99412.67;;;2.00;98.25
43683;BME280;29285;52.128;21.060;2022-12-07T14:38:49;99409.69;;;1.98;98.28
43683;BME280;29285;52.128;21.060;2022-12-07T14:43:50;99413.94;;;1.93;98.26
43683;BME280;29285;52.128;21.060;2022-12-07T14:48:52;99408.36;;;1.89;98.21
43683;BME280;29285;52.128;21.060;2022-12-07T14:53:53;99416.88;;;1.83;98.15
43683;BME280;29285;52.128;21.060;2022-12-07T14:58:54;99413.43;;;1.75;98.10
43683;BME280;29285;52.128;21.060;2022-12-07T15:03:55;99407.82;;;1.65;98.00
43683;BME280;29285;52.128;21.060;2022-12-07T15:08:57;99406.42;;;1.49;97.87
43683;BME280;29285;52.128;21.060;2022-12-07T15:13:58;99407.66;;;1.41;97.78
43683;BME280;29285;52.128;21.060;2022-12-07T15:19:14;99399.93;;;1.32;97.76
43683;BME280;29285;52.128;21.060;2022-12-07T15:24:20;99398.19;;;1.28;97.79
43683;BME280;29285;52.128;21.060;2022-12-07T15:29:22;99402.00;;;1.25;97.83
43683;BME280;29285;52.128;21.060;2022-12-07T15:34:25;99392.17;;;1.26;97.92
43683;BME280;29285;52.128;21.060;2022-12-07T15:39:27;99389.18;;;1.25;97.98
43683;BME280;29285;52.128;21.060;2022-12-07T15:44:28;99392.61;;;1.25;98.06
43683;BME280;29285;52.128;21.060;2022-12-07T15:49:48;99385.32;;;1.23;98.14
43683;BME280;29285;52.128;21.060;2022-12-07T15:54:49;99385.73;;;1.19;98.18
43683;BME280;29285;52.128;21.060;2022-12-07T15:59:51;99394.25;;;1.17;98.28
43683;BME280;29285;52.128;21.060;2022-12-07T16:04:52;99397.66;;;1.14;98.37
43683;BME280;29285;52.128;21.060;2022-12-07T16:09:54;99392.53;;;1.14;98.49
43683;BME280;29285;52.128;21.060;2022-12-07T16:14:56;99388.25;;;1.13;98.63
43683;BME280;29285;52.128;21.060;2022-12-07T16:19:57;99384.41;;;1.16;98.76
43683;BME280;29285;52.128;21.060;2022-12-07T16:24:58;99391.73;;;1.23;98.96
43683;BME280;29285;52.128;21.060;2022-12-07T16:30:00;99384.94;;;1.27;99.10
43683;BME280;29285;52.128;21.060;2022-12-07T16:35:02;99387.50;;;1.27;99.20
43683;BME280;29285;52.128;21.060;2022-12-07T16:40:04;99391.74;;;1.25;99.28
43683;BME280;29285;52.128;21.060;2022-12-07T16:45:08;99386.17;;;1.22;99.40
43683;BME280;29285;52.128;21.060;2022-12-07T16:50:10;99384.05;;;1.25;99.55
43683;BME280;29285;52.128;21.060;2022-12-07T16:55:11;99381.92;;;1.23;99.64
43683;BME280;29285;52.128;21.060;2022-12-07T17:00:13;99378.07;;;1.23;99.76
43683;BME280;29285;52.128;21.060;2022-12-07T17:05:15;99381.92;;;1.26;99.85
43683;BME280;29285;52.128;21.060;2022-12-07T17:10:16;99366.14;;;1.28;99.95
43683;BME280;29285;52.128;21.060;2022-12-07T17:15:18;99359.73;;;1.28;100.00
43683;BME280;29285;52.128;21.060;2022-12-07T17:20:23;99367.88;;;1.32;100.00
43683;BME280;29285;52.128;21.060;2022-12-07T17:25:26;99368.70;;;1.31;100.00
43683;BME280;29285;52.128;21.060;2022-12-07T17:30:27;99372.16;;;1.33;100.00
43683;BME280;29285;52.128;21.060;2022-12-07T17:35:29;99366.60;;;1.32;100.00
43683;BME280;29285;52.128;21.060;2022-12-07T17:40:30;99370.84;;;1.30;100.00
43683;BME280;29285;52.128;21.060;2022-12-07T17:45:32;99377.23;;;1.28;100.00
43683;BME280;29285;52.128;21.060;2022-12-07T17:50:33;99380.69;;;1.30;100.00
43683;BME280;29285;52.128;21.060;2022-12-07T17:55:53;99389.25;;;1.34;100.00
43683;BME280;29285;52.128;21.060;2022-12-07T18:00:55;99375.14;;;1.34;100.00
43683;BME280;29285;52.128;21.060;2022-12-07T18:05:59;99373.45;;;1.35;100.00
43683;BME280;29285;52.128;21.060;2022-12-07T18:11:01;99363.16;;;1.31;100.00
43683;BME280;29285;52.128;21.060;2022-12-07T18:16:06;99365.31;;;1.32;100.00
43683;BME280;29285;52.128;21.060;2022-12-07T18:21:14;99360.19;;;1.32;100.00
43683;BME280;29285;52.128;21.060;2022-12-07T18:26:18;99370.03;;;1.36;100.00
43683;BME280;29285;52.128;21.060;2022-12-07T18:31:20;99375.59;;;1.37;100.00
43683;BME280;29285;52.128;21.060;2022-12-07T18:36:22;99371.81;;;1.48;100.00
43683;BME280;29285;52.128;21.060;2022-12-07T18:41:24;99382.07;;;1.51;100.00
43683;BME280;29285;52.128;21.060;2022-12-07T18:46:25;99368.41;;;1.53;100.00
43683;BME280;29285;52.128;21.060;2022-12-07T18:51:27;99373.96;;;1.54;100.00
43683;BME280;29285;52.128;21.060;2022-12-07T18:56:29;99380.41;;;1.62;100.00
43683;BME280;29285;52.128;21.060;2022-12-07T19:01:31;99391.13;;;1.63;100.00
43683;BME280;29285;52.128;21.060;2022-12-07T19:06:33;99401.41;;;1.65;100.00
43683;BME280;29285;52.128;21.060;2022-12-07T19:11:35;99388.55;;;1.62;100.00
43683;BME280;29285;52.128;21.060;2022-12-07T19:16:55;99393.27;;;1.65;100.00
43683;BME280;29285;52.128;21.060;2022-12-07T19:21:59;99406.09;;;1.65;100.00
43683;BME280;29285;52.128;21.060;2022-12-07T19:27:05;99407.80;;;1.66;100.00
43683;BME280;29285;52.128;21.060;2022-12-07T19:32:07;99406.12;;;1.71;100.00
43683;BME280;29285;52.128;21.060;2022-12-07T19:37:10;99418.56;;;1.78;100.00
43683;BME280;29285;52.128;21.060;2022-12-07T19:42:14;99420.27;;;1.79;100.00
43683;BME280;29285;52.128;21.060;2022-12-07T19:47:15;99428.42;;;1.80;100.00
43683;BME280;29285;52.128;21.060;2022-12-07T19:52:17;99429.27;;;1.81;100.00
43683;BME280;29285;52.128;21.060;2022-12-07T19:57:18;99436.50;;;1.77;100.00
43683;BME280;29285;52.128;21.060;2022-12-07T20:02:19;99436.55;;;1.81;100.00
43683;BME280;29285;52.128;21.060;2022-12-07T20:07:21;99451.07;;;1.81;100.00
43683;BME280;29285;52.128;21.060;2022-12-07T20:12:22;99457.91;;;1.79;100.00
43683;BME280;29285;52.128;21.060;2022-12-07T20:17:42;99474.59;;;1.79;100.00
43683;BME280;29285;52.128;21.060;2022-12-07T20:22:45;99478.38;;;1.69;100.00
43683;BME280;29285;52.128;21.060;2022-12-07T20:27:46;99478.73;;;1.61;100.00
43683;BME280;29285;52.128;21.060;2022-12-07T20:32:48;99483.80;;;1.49;99.91
43683;BME280;29285;52.128;21.060;2022-12-07T20:37:49;99490.98;;;1.41;99.68
43683;BME280;29285;52.128;21.060;2022-12-07T20:42:50;99505.45;;;1.31;99.42
43683;BME280;29285;52.128;21.060;2022-12-07T20:47:52;99495.56;;;1.25;99.21
43683;BME280;29285;52.128;21.060;2022-12-07T20:52:53;99508.81;;;1.26;99.09
43683;BME280;29285;52.128;21.060;2022-12-07T20:57:54;99508.36;;;1.23;98.97
43683;BME280;29285;52.128;21.060;2022-12-07T21:02:56;99503.69;;;1.26;98.90
43683;BME280;29285;52.128;21.060;2022-12-07T21:07:57;99509.98;;;1.12;98.67
43683;BME280;29285;52.128;21.060;2022-12-07T21:12:58;99512.42;;;1.01;98.48
43683;BME280;29285;52.128;21.060;2022-12-07T21:18:00;99509.36;;;0.92;98.26
43683;BME280;29285;52.128;21.060;2022-12-07T21:23:01;99516.11;;;0.85;98.11
43683;BME280;29285;52.128;21.060;2022-12-07T21:28:02;99516.11;;;0.85;98.01
43683;BME280;29285;52.128;21.060;2022-12-07T21:33:05;99522.11;;;0.86;97.96
43683;BME280;29285;52.128;21.060;2022-12-07T21:38:06;99535.30;;;0.81;97.86
43683;BME280;29285;52.128;21.060;2022-12-07T21:43:07;99538.17;;;0.72;97.74
43683;BME280;29285;52.128;21.060;2022-12-07T21:48:09;99528.23;;;0.61;97.57
43683;BME280;29285;52.128;21.060;2022-12-07T21:53:10;99530.66;;;0.50;97.39
43683;BME280;29285;52.128;21.060;2022-12-07T21:58:12;99535.79;;;0.48;97.33
43683;BME280;29285;52.128;21.060;2022-12-07T22:03:13;99534.43;;;0.44;97.25
43683;BME280;29285;52.128;21.060;2022-12-07T22:08:14;99526.39;;;0.49;97.28
43683;BME280;29285;52.128;21.060;2022-12-07T22:13:16;99527.23;;;0.48;97.27
43683;BME280;29285;52.128;21.060;2022-12-07T22:18:17;99529.91;;;0.57;97.35
43683;BME280;29285;52.128;21.060;2022-12-07T22:23:18;99527.48;;;0.70;97.48
43683;BME280;29285;52.128;21.060;2022-12-07T22:28:20;99525.09;;;0.84;97.58
43683;BME280;29285;52.128;21.060;2022-12-07T22:33:21;99524.65;;;0.84;97.56
43683;BME280;29285;52.128;21.060;2022-12-07T22:38:23;99526.67;;;0.74;97.42
43683;BME280;29285;52.128;21.060;2022-12-07T22:43:25;99539.42;;;0.68;97.26
43683;BME280;29285;52.128;21.060;2022-12-07T22:48:26;99535.09;;;0.63;97.17
43683;BME280;29285;52.128;21.060;2022-12-07T22:53:28;99533.81;;;0.63;97.12
43683;BME280;29285;52.128;21.060;2022-12-07T22:58:30;99533.42;;;0.67;97.10
43683;BME280;29285;52.128;21.060;2022-12-07T23:03:32;99539.78;;;0.62;97.03
43683;BME280;29285;52.128;21.060;2022-12-07T23:08:35;99537.17;;;0.59;96.99
43683;BME280;29285;52.128;21.060;2022-12-07T23:13:36;99543.09;;;0.55;96.91
43683;BME280;29285;52.128;21.060;2022-12-07T23:18:39;99539.67;;;0.53;96.90
43683;BME280;29285;52.128;21.060;2022-12-07T23:23:41;99541.39;;;0.54;96.89
43683;BME280;29285;52.128;21.060;2022-12-07T23:28:43;99540.08;;;0.52;96.90
43683;BME280;29285;52.128;21.060;2022-12-07T23:33:45;99546.58;;;0.59;96.98
43683;BME280;29285;52.128;21.060;2022-12-07T23:38:48;99556.91;;;0.67;97.11
43683;BME280;29285;52.128;21.060;2022-12-07T23:43:51;99547.88;;;0.62;97.12
43683;BME280;29285;52.128;21.060;2022-12-07T23:48:55;99558.56;;;0.61;97.15
43683;BME280;29285;52.128;21.060;2022-12-07T23:53:58;99552.16;;;0.61;97.21
43683;BME280;29285;52.128;21.060;2022-12-07T23:59:02;99550.41;;;0.60;97.24
